Time;durP1;ratioP1;P1;durP2;ratioP2;P2;SDS_P1;SDS_P2;PMS_P1;PMS_P2;Temp;Humidity;BMP_temperature;BMP_pressure;BME280_temperature;BME280_humidity;BME280_pressure;Samples;Min_cycle;Max_cycle;Signal;HPM_P1;HPM_P2
2022/03/06 00:00:45;;;;;;;24.75;13.65;;;-0.20;99.90;;;;;;5080904;28;20045;-82
2022/03/06 00:03:10;;;;;;;25.05;13.70;;;-0.10;99.90;;;;;;5064504;28;20033;-82
2022/03/06 00:05:36;;;;;;;25.13;14.60;;;-0.10;99.90;;;;;;5081204;28;20040;-81
2022/03/06 00:08:02;;;;;;;24.67;13.77;;;-0.20;99.90;;;;;;5064669;28;20043;-82
2022/03/06 00:10:29;;;;;;;24.65;13.88;;;-0.20;99.90;;;;;;5063944;28;20055;-82
2022/03/06 00:12:55;;;;;;;22.02;12.77;;;-0.20;99.90;;;;;;5063691;28;20506;-82
2022/03/06 00:15:22;;;;;;;27.10;13.80;;;-0.20;99.90;;;;;;5064578;28;20044;-82
2022/03/06 00:17:48;;;;;;;23.20;13.52;;;0.10;99.90;;;;;;5063936;28;20036;-82
2022/03/06 00:20:14;;;;;;;23.00;13.02;;;0.10;99.90;;;;;;5064019;28;20037;-82
2022/03/06 00:22:40;;;;;;;24.27;13.35;;;-0.20;99.90;;;;;;5063726;28;20098;-82
2022/03/06 00:25:06;;;;;;;22.42;13.68;;;-0.20;99.90;;;;;;5057935;22;20048;-82
2022/03/06 00:27:32;;;;;;;22.35;12.65;;;-0.10;99.90;;;;;;5056928;23;20041;-82
2022/03/06 00:29:58;;;;;;;26.17;13.55;;;-0.10;99.90;;;;;;5075480;23;20368;-82
2022/03/06 00:32:25;;;;;;;24.67;13.65;;;-0.10;99.90;;;;;;5067584;28;20381;-82
2022/03/06 00:34:50;;;;;;;21.85;13.18;;;0.00;99.90;;;;;;5067019;28;20482;-81
2022/03/06 00:37:16;;;;;;;25.80;13.77;;;0.00;99.90;;;;;;5059180;23;20078;-82
2022/03/06 00:39:43;;;;;;;21.48;12.15;;;0.10;99.90;;;;;;5062241;23;20495;-82
2022/03/06 00:42:09;;;;;;;22.60;12.80;;;0.00;99.90;;;;;;5026986;28;20467;-82
2022/03/06 00:44:35;;;;;;;22.95;12.80;;;0.10;99.90;;;;;;5043685;28;20060;-82
2022/03/06 00:47:01;;;;;;;22.17;12.38;;;0.10;99.90;;;;;;5028301;28;20048;-82
2022/03/06 00:49:27;;;;;;;21.92;12.60;;;0.70;99.90;;;;;;5027123;28;20041;-82
2022/03/06 00:51:53;;;;;;;21.48;12.85;;;0.10;99.90;;;;;;5026817;28;20124;-82
2022/03/06 00:54:19;;;;;;;21.13;12.50;;;0.10;99.90;;;;;;5081414;23;20044;-82
2022/03/06 00:56:48;;;;;;;20.30;12.18;;;0.70;99.90;;;;;;5070706;22;20032;-82
2022/03/06 00:59:14;;;;;;;20.63;11.95;;;0.10;99.90;;;;;;5062588;28;20099;-82
2022/03/06 01:01:40;;;;;;;22.00;12.68;;;0.50;99.90;;;;;;5063101;28;20036;-82
2022/03/06 01:04:06;;;;;;;22.27;12.05;;;0.10;99.90;;;;;;5046903;28;20047;-82
2022/03/06 01:06:31;;;;;;;21.15;11.82;;;0.10;99.90;;;;;;5046006;28;20032;-82
2022/03/06 01:08:57;;;;;;;21.45;11.98;;;0.10;99.90;;;;;;5063314;23;20450;-81
2022/03/06 01:11:23;;;;;;;20.58;11.77;;;0.10;99.90;;;;;;5082252;28;20387;-82
2022/03/06 01:13:49;;;;;;;20.67;11.40;;;0.20;99.90;;;;;;5058527;23;20068;-82
2022/03/06 01:16:16;;;;;;;20.27;11.63;;;0.60;99.90;;;;;;5049490;23;20051;-82
2022/03/06 01:18:41;;;;;;;19.90;11.55;;;0.30;99.90;;;;;;5042146;28;20041;-82
2022/03/06 01:21:08;;;;;;;21.65;11.80;;;0.30;99.90;;;;;;5049613;23;20083;-82
2022/03/06 01:23:35;;;;;;;21.23;11.10;;;1.00;99.90;;;;;;5042308;28;20044;-81
2022/03/06 01:26:01;;;;;;;22.25;11.30;;;0.40;99.90;;;;;;5044262;28;20072;-82
2022/03/06 01:28:30;;;;;;;18.58;10.68;;;0.70;99.90;;;;;;5060954;23;20044;-82
2022/03/06 01:30:56;;;;;;;18.67;10.68;;;0.60;99.90;;;;;;5061224;23;20045;-82
2022/03/06 01:33:22;;;;;;;18.30;11.25;;;0.70;99.90;;;;;;5043266;28;20135;-82
2022/03/06 01:35:48;;;;;;;17.83;10.32;;;0.60;99.90;;;;;;5043005;28;20154;-81
2022/03/06 01:38:13;;;;;;;18.52;10.50;;;0.70;99.90;;;;;;5059896;28;20082;-82
2022/03/06 01:40:39;;;;;;;19.23;10.18;;;1.20;99.90;;;;;;5059524;28;20045;-82
2022/03/06 01:43:05;;;;;;;19.63;10.35;;;0.70;99.90;;;;;;5049349;23;20068;-82
2022/03/06 01:45:31;;;;;;;16.40;10.20;;;0.80;99.90;;;;;;5049195;23;20104;-82
2022/03/06 01:47:58;;;;;;;14.68;9.32;;;0.80;99.90;;;;;;5050917;28;20037;-82
2022/03/06 01:52:51;;;;;;;15.82;9.45;;;0.80;99.90;;;;;;5083832;22;20424;-82
2022/03/06 01:55:19;;;;;;;16.02;9.27;;;0.80;99.90;;;;;;5026595;28;20041;-82
2022/03/06 01:57:46;;;;;;;17.42;9.95;;;0.90;99.90;;;;;;5049750;23;20062;-82
2022/03/06 02:00:21;;;;;;;16.48;10.18;;;0.90;99.90;;;;;;5043050;23;20057;-82
2022/03/06 02:02:47;;;;;;;15.07;8.68;;;0.90;99.90;;;;;;5059692;23;20048;-82
2022/03/06 02:05:13;;;;;;;16.33;9.15;;;0.90;99.90;;;;;;5045393;28;20043;-81
2022/03/06 02:07:39;;;;;;;16.45;9.55;;;0.90;99.90;;;;;;5061946;28;20039;-82
2022/03/06 02:10:08;;;;;;;15.43;9.13;;;0.90;99.90;;;;;;5045030;28;20474;-82
2022/03/06 02:12:34;;;;;;;15.73;9.30;;;0.90;99.90;;;;;;5076363;23;20453;-82
2022/03/06 02:15:02;;;;;;;17.10;9.50;;;0.80;99.90;;;;;;5065769;28;20055;-82
2022/03/06 02:17:28;;;;;;;17.88;9.52;;;0.80;99.90;;;;;;5066100;28;20032;-82
2022/03/06 02:19:56;;;;;;;17.42;9.23;;;0.80;99.90;;;;;;5064886;28;20054;-82
2022/03/06 02:22:32;;;;;;;17.77;9.70;;;0.80;99.90;;;;;;5054339;23;20055;-82
2022/03/06 02:24:59;;;;;;;13.82;8.50;;;0.80;99.90;;;;;;5036032;28;20080;-81
2022/03/06 02:29:55;;;;;;;18.05;9.75;;;0.70;99.90;;;;;;5056299;28;20052;-82
2022/03/06 02:32:22;;;;;;;15.48;9.23;;;1.20;99.90;;;;;;5040847;28;20403;-82
2022/03/06 02:34:50;;;;;;;16.35;9.55;;;0.70;99.90;;;;;;5025804;28;20063;-82
2022/03/06 02:37:20;;;;;;;15.52;8.82;;;1.10;99.90;;;;;;5025070;28;20037;-81
2022/03/06 02:39:47;;;;;;;16.20;9.00;;;0.70;99.90;;;;;;5008528;28;20514;-82
2022/03/06 02:42:33;;;;;;;16.45;9.07;;;0.70;99.90;;;;;;5042224;28;20044;-82
2022/03/06 02:45:01;;;;;;;16.40;9.15;;;0.70;99.90;;;;;;5025156;28;20036;-82
2022/03/06 02:49:52;;;;;;;15.07;8.68;;;0.70;99.90;;;;;;5109931;22;20079;-82
2022/03/06 02:52:18;;;;;;;14.98;8.85;;;0.80;99.90;;;;;;5064196;28;20074;-82
2022/03/06 02:54:44;;;;;;;13.93;9.02;;;0.80;99.90;;;;;;5064219;28;20032;-82
2022/03/06 02:57:11;;;;;;;17.45;8.40;;;0.80;99.90;;;;;;5064840;23;20438;-82
2022/03/06 02:59:37;;;;;;;14.88;8.40;;;0.80;99.90;;;;;;5065162;22;20049;-82
2022/03/06 03:02:04;;;;;;;15.68;8.25;;;0.80;99.90;;;;;;5048194;23;20049;-82
2022/03/06 03:04:31;;;;;;;14.95;8.32;;;0.80;99.90;;;;;;5042262;28;20442;-82
2022/03/06 03:06:57;;;;;;;14.10;7.88;;;0.90;99.90;;;;;;5048654;23;20065;-82
2022/03/06 03:09:24;;;;;;;18.45;9.18;;;0.90;99.90;;;;;;5041585;28;20133;-82
2022/03/06 03:11:59;;;;;;;12.82;8.00;;;0.90;99.90;;;;;;5041126;28;20077;-82
2022/03/06 03:14:25;;;;;;;15.35;8.38;;;0.90;99.90;;;;;;5041558;28;20583;-81
2022/03/06 03:16:51;;;;;;;17.70;8.80;;;0.90;99.90;;;;;;5058123;28;20065;-81
2022/03/06 03:19:18;;;;;;;14.25;8.07;;;1.30;99.90;;;;;;5065081;22;20053;-82
2022/03/06 03:21:44;;;;;;;16.02;8.60;;;0.90;99.90;;;;;;5041107;28;20041;-82
2022/03/06 03:24:10;;;;;;;14.52;9.05;;;1.00;99.90;;;;;;5055642;23;20049;-82
2022/03/06 03:26:36;;;;;;;13.73;7.57;;;0.90;99.90;;;;;;5048291;23;20041;-82
2022/03/06 03:29:02;;;;;;;12.05;7.22;;;0.90;99.90;;;;;;5051387;23;20052;-82
2022/03/06 03:31:27;;;;;;;14.02;7.93;;;0.90;99.90;;;;;;5053259;28;20096;-82
2022/03/06 03:33:53;;;;;;;10.80;6.68;;;0.90;99.90;;;;;;5047345;28;20044;-82
2022/03/06 03:36:19;;;;;;;13.13;7.05;;;0.90;99.90;;;;;;5048485;23;20049;-82
2022/03/06 03:38:45;;;;;;;12.32;6.45;;;0.90;99.90;;;;;;5041313;28;20454;-81
2022/03/06 03:41:12;;;;;;;11.48;6.80;;;0.90;99.90;;;;;;5057710;28;20080;-82
2022/03/06 03:43:37;;;;;;;10.73;6.63;;;0.90;99.90;;;;;;5066518;22;20127;-82
2022/03/06 03:46:05;;;;;;;11.93;6.60;;;0.90;99.90;;;;;;5061914;23;20045;-82
2022/03/06 03:48:32;;;;;;;10.48;6.38;;;0.80;99.90;;;;;;5064751;28;20052;-82
2022/03/06 03:50:58;;;;;;;11.68;5.95;;;0.90;99.90;;;;;;5064448;28;20051;-82
2022/03/06 03:53:24;;;;;;;10.23;6.00;;;0.80;99.90;;;;;;5051060;22;20527;-82
2022/03/06 03:55:52;;;;;;;10.68;6.00;;;0.70;99.90;;;;;;5058610;22;20049;-82
2022/03/06 03:58:19;;;;;;;10.75;6.07;;;1.20;99.90;;;;;;5061766;28;20081;-82
2022/03/06 04:00:45;;;;;;;12.40;6.32;;;0.60;99.90;;;;;;5045309;28;20044;-82
2022/03/06 04:03:11;;;;;;;9.70;5.72;;;0.50;99.90;;;;;;5052392;22;20045;-82
2022/03/06 04:05:37;;;;;;;10.93;5.82;;;0.50;99.90;;;;;;5052830;22;20049;-82
2022/03/06 04:08:03;;;;;;;12.38;6.05;;;0.50;99.90;;;;;;5048881;28;20101;-82
2022/03/06 04:10:29;;;;;;;11.48;6.05;;;0.40;99.90;;;;;;5063704;22;20052;-82
2022/03/06 04:12:55;;;;;;;11.80;6.10;;;0.40;99.90;;;;;;5063592;23;20044;-82
2022/03/06 04:15:26;;;;;;;11.00;5.65;;;0.30;99.90;;;;;;5056722;22;20071;31
2022/03/06 04:17:52;;;;;;;10.75;5.50;;;0.60;99.90;;;;;;5078643;22;20459;-82
2022/03/06 04:20:19;;;;;;;11.43;6.10;;;0.60;99.90;;;;;;5039297;23;20056;-82
2022/03/06 04:22:45;;;;;;;9.90;5.43;;;0.30;99.90;;;;;;5054176;22;20023;-82
2022/03/06 04:25:11;;;;;;;12.68;6.00;;;1.20;99.90;;;;;;5051452;23;20059;-82
2022/03/06 04:27:36;;;;;;;10.32;5.90;;;0.50;99.90;;;;;;5044203;28;20691;-82
2022/03/06 04:30:03;;;;;;;10.65;5.90;;;0.20;99.90;;;;;;5057796;23;20049;-82
2022/03/06 04:32:29;;;;;;;13.00;5.93;;;0.20;99.90;;;;;;5050353;23;20044;-82
2022/03/06 04:34:54;;;;;;;9.07;5.60;;;0.10;99.90;;;;;;5044299;28;20368;-82
2022/03/06 04:37:26;;;;;;;10.70;6.05;;;0.40;99.90;;;;;;5058494;22;20045;-82
2022/03/06 04:39:52;;;;;;;10.88;5.72;;;0.00;99.90;;;;;;5070772;23;20074;-81
2022/03/06 04:42:19;;;;;;;10.75;5.70;;;0.00;99.90;;;;;;5056185;23;20044;-82
2022/03/06 04:44:44;;;;;;;10.68;5.53;;;-0.10;99.90;;;;;;5072144;23;20040;-81
2022/03/06 04:47:10;;;;;;;10.98;5.82;;;0.40;99.90;;;;;;5064483;23;20127;-82
2022/03/06 04:49:36;;;;;;;11.90;5.80;;;-0.10;99.90;;;;;;5050904;23;20044;-82
2022/03/06 04:52:02;;;;;;;13.88;6.25;;;-0.10;99.90;;;;;;5065744;22;20073;-82
2022/03/06 04:54:28;;;;;;;9.88;5.85;;;-0.20;99.90;;;;;;5050705;23;20187;-82
2022/03/06 04:56:54;;;;;;;11.63;6.03;;;-0.20;99.90;;;;;;5044366;28;20094;-81
2022/03/06 04:59:19;;;;;;;10.93;6.20;;;-0.30;99.90;;;;;;5050468;28;20045;-82
2022/03/06 05:01:45;;;;;;;10.68;6.00;;;-0.30;99.90;;;;;;5055267;28;20064;-82
2022/03/06 05:04:11;;;;;;;14.07;6.78;;;-0.40;99.90;;;;;;5079841;22;20083;-82
2022/03/06 05:06:36;;;;;;;12.57;6.47;;;-0.40;99.90;;;;;;5050751;23;20049;-81
2022/03/06 05:09:02;;;;;;;12.23;6.40;;;-0.40;99.90;;;;;;5043791;28;20139;-81
2022/03/06 05:11:28;;;;;;;9.93;6.30;;;-0.40;99.90;;;;;;5050891;23;20053;-81
2022/03/06 05:13:55;;;;;;;10.57;6.20;;;-0.40;99.90;;;;;;5054012;23;20072;-81
2022/03/06 05:16:21;;;;;;;11.10;6.07;;;-0.40;99.90;;;;;;5079377;28;20041;-81
2022/03/06 05:18:46;;;;;;;10.93;6.10;;;-0.40;99.90;;;;;;5063841;28;20040;-82
2022/03/06 05:21:13;;;;;;;12.57;6.22;;;-0.50;99.90;;;;;;5063575;28;20044;-81
2022/03/06 05:23:38;;;;;;;11.73;6.35;;;-0.50;99.90;;;;;;5063213;28;20036;-82
2022/03/06 05:26:04;;;;;;;13.10;6.00;;;-0.50;99.90;;;;;;5046355;28;20040;-82
2022/03/06 05:28:30;;;;;;;11.15;6.35;;;-0.50;99.90;;;;;;5087637;22;20056;-82
2022/03/06 05:30:56;;;;;;;11.38;6.35;;;-0.50;99.90;;;;;;5082127;22;20045;-82
2022/03/06 05:33:22;;;;;;;11.95;7.00;;;-0.60;99.90;;;;;;5080670;23;20048;-82
2022/03/06 05:35:48;;;;;;;13.18;6.47;;;-0.60;99.90;;;;;;5065686;28;20135;-82
2022/03/06 05:38:14;;;;;;;14.73;6.80;;;-0.60;99.90;;;;;;5055472;23;20052;-82
2022/03/06 05:40:40;;;;;;;11.73;6.53;;;-0.60;99.90;;;;;;5042639;28;20041;-82
2022/03/06 05:43:05;;;;;;;9.95;6.22;;;-0.60;99.90;;;;;;5057210;23;20040;-82
2022/03/06 05:45:31;;;;;;;13.90;7.03;;;-0.70;99.90;;;;;;5065919;23;20052;-82
2022/03/06 05:47:57;;;;;;;13.77;6.95;;;-0.70;99.90;;;;;;5062855;28;20083;-82
2022/03/06 05:50:23;;;;;;;13.40;6.22;;;-0.70;99.90;;;;;;5062411;28;20048;-82
2022/03/06 05:52:49;;;;;;;13.32;6.95;;;-0.30;99.90;;;;;;5045389;28;20056;-82
2022/03/06 05:55:15;;;;;;;11.90;6.10;;;-0.70;99.90;;;;;;5045429;28;20049;-82
2022/03/06 05:57:41;;;;;;;11.63;6.30;;;-0.70;99.90;;;;;;5045935;28;20132;-82
2022/03/06 06:00:08;;;;;;;10.77;6.35;;;-0.70;99.90;;;;;;5045714;28;20044;-82
2022/03/06 06:02:40;;;;;;;12.85;6.60;;;-0.70;99.90;;;;;;5045696;28;20046;-82
2022/03/06 06:05:08;;;;;;;11.77;6.45;;;-0.70;99.90;;;;;;5045052;28;20044;-82
2022/03/06 06:07:35;;;;;;;11.95;6.47;;;-0.80;99.90;;;;;;5044591;28;20493;-82
2022/03/06 06:10:01;;;;;;;12.35;6.53;;;-0.80;99.90;;;;;;5087987;23;20139;-82
2022/03/06 06:12:27;;;;;;;12.40;6.75;;;-0.80;99.90;;;;;;5065764;28;20471;-82
2022/03/06 06:14:53;;;;;;;16.67;6.97;;;-0.80;99.90;;;;;;5065110;28;20073;-82
2022/03/06 06:17:19;;;;;;;11.55;6.10;;;-0.80;99.90;;;;;;5081902;28;20081;-82
2022/03/06 06:19:45;;;;;;;14.32;6.63;;;-0.80;99.90;;;;;;5081534;28;20044;-82
2022/03/06 06:22:11;;;;;;;13.48;5.82;;;-0.80;99.90;;;;;;5100403;28;20043;-82
2022/03/06 06:24:37;;;;;;;11.35;6.47;;;-0.90;99.90;;;;;;5099846;28;20067;-82
2022/03/06 06:27:03;;;;;;;11.07;6.40;;;-0.90;99.90;;;;;;5065562;28;20044;-82
2022/03/06 06:29:28;;;;;;;11.00;6.25;;;-0.90;99.90;;;;;;5082336;28;20040;-82
2022/03/06 06:31:54;;;;;;;12.45;6.40;;;-0.90;99.90;;;;;;5065289;28;20044;-82
2022/03/06 06:34:20;;;;;;;11.95;6.70;;;-1.00;99.90;;;;;;5087705;28;20047;-82
2022/03/06 06:36:47;;;;;;;13.75;6.45;;;-0.50;99.90;;;;;;5073996;28;20032;-82
2022/03/06 06:39:13;;;;;;;12.15;5.95;;;-0.90;99.90;;;;;;5075860;28;20107;-82
2022/03/06 06:41:39;;;;;;;15.05;6.60;;;-0.90;99.90;;;;;;5090206;28;20040;-82
2022/03/06 06:44:06;;;;;;;13.20;6.80;;;-0.90;99.90;;;;;;5082303;28;20093;-82
2022/03/06 06:46:32;;;;;;;12.63;6.22;;;-0.90;99.90;;;;;;5082212;28;20360;-82
2022/03/06 06:48:58;;;;;;;13.20;6.53;;;-0.90;99.90;;;;;;5082281;28;20044;-82
2022/03/06 06:51:24;;;;;;;12.52;6.20;;;-0.80;99.90;;;;;;5065661;28;20361;-82
2022/03/06 06:53:49;;;;;;;11.27;5.80;;;-0.80;99.90;;;;;;5082902;28;20368;-82
2022/03/06 06:56:15;;;;;;;12.98;6.43;;;-0.80;99.90;;;;;;5083086;28;20106;-82
2022/03/06 06:58:41;;;;;;;14.77;6.78;;;-0.80;99.90;;;;;;5082839;28;20051;-82
2022/03/06 07:01:07;;;;;;;10.57;6.68;;;-0.80;99.90;;;;;;5082606;28;20051;-81
2022/03/06 07:03:33;;;;;;;11.93;6.82;;;-0.80;99.90;;;;;;5083472;28;20072;-82
2022/03/06 07:05:59;;;;;;;14.32;6.40;;;-0.70;99.90;;;;;;5083149;28;20040;-82
2022/03/06 07:08:25;;;;;;;12.73;6.60;;;-0.70;99.90;;;;;;5083634;28;20101;-83
2022/03/06 07:10:51;;;;;;;13.00;6.25;;;-0.60;99.90;;;;;;5095394;28;20055;-83
2022/03/06 07:13:17;;;;;;;13.25;6.22;;;-0.60;99.90;;;;;;5122254;28;20043;-83
2022/03/06 07:15:43;;;;;;;10.35;5.80;;;-0.50;99.90;;;;;;5102486;28;20050;-83
2022/03/06 07:18:08;;;;;;;13.15;6.40;;;-0.50;99.90;;;;;;5122791;28;20043;-83
2022/03/06 07:20:34;;;;;;;10.32;5.75;;;-0.40;99.90;;;;;;5106713;28;20043;-83
2022/03/06 07:23:00;;;;;;;10.80;5.57;;;-0.40;99.90;;;;;;5107027;28;20036;-83
2022/03/06 07:25:26;;;;;;;11.15;6.50;;;-0.30;99.90;;;;;;5106805;28;20081;-83
2022/03/06 07:27:52;;;;;;;13.88;6.13;;;-0.20;99.90;;;;;;5107597;28;20403;-83
2022/03/06 07:30:18;;;;;;;12.23;5.90;;;-0.20;99.90;;;;;;5126131;28;20036;-83
2022/03/06 07:32:49;;;;;;;12.80;5.50;;;-0.10;99.90;;;;;;5107644;28;20139;-83
2022/03/06 07:35:17;;;;;;;11.60;5.90;;;0.00;99.90;;;;;;5127009;28;20047;-83
2022/03/06 07:37:43;;;;;;;10.35;5.60;;;0.10;99.90;;;;;;5106891;28;20047;-83
2022/03/06 07:40:12;;;;;;;9.15;5.57;;;0.20;99.90;;;;;;5106716;28;20040;-83
2022/03/06 07:42:37;;;;;;;11.10;5.47;;;0.20;99.90;;;;;;5107356;28;20043;-83
2022/03/06 07:45:04;;;;;;;9.32;5.20;;;0.30;99.90;;;;;;5107062;28;20127;-83
2022/03/06 07:47:30;;;;;;;12.18;5.05;;;0.30;99.90;;;;;;5106363;28;20139;-83
2022/03/06 07:49:56;;;;;;;10.82;4.90;;;0.40;99.90;;;;;;5125480;28;20051;-83
2022/03/06 07:52:22;;;;;;;11.32;5.10;;;0.50;99.90;;;;;;5106165;28;20040;-83
2022/03/06 07:54:47;;;;;;;8.88;4.60;;;0.50;99.90;;;;;;5106378;28;20048;-83
2022/03/06 07:57:13;;;;;;;8.30;4.80;;;0.60;99.90;;;;;;5125072;28;20035;-83
2022/03/06 07:59:39;;;;;;;9.75;4.78;;;0.70;99.90;;;;;;5090412;28;20050;-83
2022/03/06 08:02:05;;;;;;;7.78;4.25;;;0.80;99.90;;;;;;5105504;28;20065;-83
2022/03/06 08:04:30;;;;;;;8.07;4.63;;;1.40;99.90;;;;;;5106601;28;20043;-83
2022/03/06 08:06:56;;;;;;;6.90;3.92;;;0.90;99.90;;;;;;5106802;28;20040;-83
2022/03/06 08:09:24;;;;;;;11.20;4.75;;;1.00;99.90;;;;;;5106682;28;20095;-83
2022/03/06 08:11:53;;;;;;;9.15;4.07;;;1.00;99.90;;;;;;5124431;28;20044;-83
2022/03/06 08:14:19;;;;;;;6.15;3.45;;;1.10;99.90;;;;;;5105853;28;20051;-83
2022/03/06 08:16:45;;;;;;;6.32;3.75;;;1.20;99.90;;;;;;5123849;28;20042;-83
2022/03/06 08:19:10;;;;;;;5.40;3.53;;;1.30;99.90;;;;;;5105351;28;20044;-83
2022/03/06 08:21:36;;;;;;;5.18;3.70;;;1.30;99.90;;;;;;5105703;28;20131;-83
2022/03/06 08:24:02;;;;;;;6.78;3.47;;;1.40;99.90;;;;;;5089510;28;20100;-83
2022/03/06 08:26:27;;;;;;;5.22;3.53;;;1.50;99.90;;;;;;5090123;28;20566;-82
2022/03/06 08:28:53;;;;;;;9.73;4.10;;;1.50;99.90;;;;;;5114758;28;20116;-83
2022/03/06 08:31:20;;;;;;;5.68;3.20;;;1.60;99.90;;;;;;5131502;28;20046;-83
2022/03/06 08:33:46;;;;;;;7.13;3.75;;;1.70;99.90;;;;;;5107242;28;20042;-83
2022/03/06 08:36:12;;;;;;;6.15;3.00;;;1.70;99.90;;;;;;5125475;28;20075;-83
2022/03/06 08:38:37;;;;;;;5.88;2.85;;;1.90;99.90;;;;;;5126006;28;20549;-83
2022/03/06 08:41:03;;;;;;;5.60;2.72;;;1.90;99.90;;;;;;5089855;28;20043;-83
2022/03/06 08:43:29;;;;;;;5.15;2.97;;;2.00;99.90;;;;;;5124715;28;20074;-83
2022/03/06 08:45:54;;;;;;;5.90;2.80;;;2.10;99.90;;;;;;5106166;28;20048;-83
2022/03/06 08:48:21;;;;;;;5.80;2.70;;;2.20;99.90;;;;;;5107267;28;20039;-83
2022/03/06 08:50:49;;;;;;;5.07;2.83;;;2.30;99.90;;;;;;5125330;28;20043;-83
2022/03/06 08:53:16;;;;;;;7.38;2.70;;;2.40;99.90;;;;;;5124686;28;20050;-83
2022/03/06 08:55:41;;;;;;;4.68;2.78;;;2.40;99.90;;;;;;5111768;28;20506;-83
2022/03/06 08:58:07;;;;;;;5.97;2.85;;;2.50;99.90;;;;;;5112066;28;20047;-83
2022/03/06 09:00:33;;;;;;;6.75;3.03;;;2.60;99.90;;;;;;5128036;28;20040;-83
2022/03/06 09:02:58;;;;;;;5.32;2.70;;;2.60;99.90;;;;;;5125124;28;20429;-83
2022/03/06 09:05:24;;;;;;;6.65;2.90;;;2.60;99.90;;;;;;5106364;28;20043;-83
2022/03/06 09:07:50;;;;;;;6.00;2.83;;;2.60;99.90;;;;;;5105778;28;20039;-83
2022/03/06 09:10:15;;;;;;;4.90;2.65;;;2.70;99.90;;;;;;5106642;28;20040;-83
2022/03/06 09:12:41;;;;;;;3.67;2.55;;;2.70;99.90;;;;;;5103979;28;20056;-83
2022/03/06 09:15:08;;;;;;;5.72;3.08;;;2.80;99.90;;;;;;5104329;28;20031;-83
2022/03/06 09:17:34;;;;;;;7.00;2.58;;;2.90;99.90;;;;;;5105341;28;20127;-83
2022/03/06 09:19:59;;;;;;;4.43;2.40;;;2.90;99.90;;;;;;5104079;28;20489;-83
2022/03/06 09:22:25;;;;;;;6.18;2.78;;;3.20;99.90;;;;;;5104220;28;20042;-83
2022/03/06 09:24:51;;;;;;;4.57;2.47;;;2.90;99.90;;;;;;5101251;28;20040;-84
2022/03/06 09:27:16;;;;;;;4.22;2.45;;;3.00;99.90;;;;;;5082776;28;20036;-83
2022/03/06 09:29:42;;;;;;;5.25;2.75;;;3.10;99.90;;;;;;5083683;28;20098;-83
2022/03/06 09:32:08;;;;;;;5.32;2.60;;;3.20;99.90;;;;;;5084512;28;20044;-83
2022/03/06 09:34:34;;;;;;;4.68;2.25;;;3.30;99.90;;;;;;5100843;28;20162;-83
2022/03/06 09:36:59;;;;;;;4.00;2.58;;;3.60;99.90;;;;;;5102071;28;20071;-83
2022/03/06 09:39:25;;;;;;;5.28;2.55;;;3.40;99.90;;;;;;5083478;28;20044;-83
2022/03/06 09:41:54;;;;;;;4.15;2.53;;;3.50;99.90;;;;;;5081277;28;20051;-83
2022/03/06 09:44:24;;;;;;;5.22;2.60;;;3.70;99.90;;;;;;5065651;28;20032;-83
2022/03/06 09:46:52;;;;;;;5.63;2.58;;;3.60;99.90;;;;;;5083203;28;20548;-83
2022/03/06 09:49:18;;;;;;;5.25;2.40;;;3.70;99.90;;;;;;5101712;28;20490;-84
2022/03/06 09:51:44;;;;;;;5.05;2.40;;;3.70;99.90;;;;;;5100844;28;20044;-84
2022/03/06 09:54:11;;;;;;;4.82;2.60;;;3.90;99.90;;;;;;5082825;28;20042;-83
2022/03/06 09:56:37;;;;;;;4.45;2.45;;;3.90;99.90;;;;;;5077174;28;20478;-84
2022/03/06 09:59:03;;;;;;;6.95;2.80;;;4.00;99.90;;;;;;5076582;28;20104;-84
2022/03/06 10:01:29;;;;;;;4.50;2.40;;;4.50;99.90;;;;;;5076649;28;20119;-83
2022/03/06 10:03:54;;;;;;;4.15;2.28;;;4.00;99.90;;;;;;5100962;28;20079;-84
2022/03/06 10:06:20;;;;;;;4.60;2.50;;;4.70;99.90;;;;;;5099700;28;20040;-83
2022/03/06 10:08:45;;;;;;;3.80;2.42;;;4.10;99.90;;;;;;5099403;28;20071;-83
2022/03/06 10:11:12;;;;;;;4.53;2.60;;;4.30;99.90;;;;;;5100320;28;20048;-83
2022/03/06 10:13:43;;;;;;;5.28;2.10;;;4.30;99.90;;;;;;5101044;28;20058;-84
2022/03/06 10:16:11;;;;;;;4.32;2.35;;;4.40;99.90;;;;;;5101241;28;20081;-83
2022/03/06 10:18:49;;;;;;;4.07;2.70;;;4.50;99.90;;;;;;5082583;28;20132;-81
2022/03/06 10:21:19;;;;;;;3.75;2.30;;;4.50;99.90;;;;;;5081480;28;20048;-81
2022/03/06 10:23:47;;;;;;;4.15;2.50;;;4.60;99.90;;;;;;5082705;28;20047;-82
2022/03/06 10:26:19;;;;;;;6.13;2.70;;;4.70;99.90;;;;;;5101302;28;20062;-81
2022/03/06 10:28:53;;;;;;;4.63;2.30;;;5.20;99.90;;;;;;5101536;28;20118;-81
2022/03/06 10:31:20;;;;;;;4.93;2.25;;;4.90;99.90;;;;;;5101287;28;20032;-81
2022/03/06 10:34:05;;;;;;;4.63;2.58;;;5.00;99.90;;;;;;5083121;28;20088;-81
2022/03/06 10:36:33;;;;;;;4.77;2.50;;;5.10;99.90;;;;;;5081598;28;20074;-81
2022/03/06 10:39:00;;;;;;;5.97;2.60;;;5.10;99.90;;;;;;5098800;28;20302;-81
2022/03/06 10:41:38;;;;;;;6.43;2.40;;;5.10;99.90;;;;;;5099302;28;20559;-82
2022/03/06 10:44:05;;;;;;;5.07;2.40;;;5.20;99.90;;;;;;5082219;28;20043;-83
2022/03/06 10:46:33;;;;;;;5.03;2.38;;;5.20;99.90;;;;;;5064784;28;20043;-83
2022/03/06 10:49:02;;;;;;;4.10;2.25;;;5.30;99.90;;;;;;5098175;28;20040;-82
2022/03/06 10:51:29;;;;;;;4.78;2.15;;;5.30;99.90;;;;;;5081651;28;20047;-82
2022/03/06 10:54:00;;;;;;;5.03;2.30;;;5.40;99.90;;;;;;5082059;28;20130;-82
2022/03/06 10:56:27;;;;;;;5.07;2.50;;;5.60;99.90;;;;;;5082678;28;20044;-82
2022/03/06 10:58:55;;;;;;;4.80;2.10;;;5.50;99.90;;;;;;5100881;28;20036;-82
2022/03/06 11:01:22;;;;;;;4.82;2.53;;;6.10;99.90;;;;;;5100981;28;20044;-82
2022/03/06 11:03:50;;;;;;;3.40;2.30;;;5.80;99.90;;;;;;5066244;28;20040;-82
2022/03/06 11:06:19;;;;;;;3.63;2.10;;;6.00;99.90;;;;;;5047424;28;20056;-82
2022/03/06 11:08:46;;;;;;;4.82;2.40;;;6.00;99.90;;;;;;5082739;28;20449;-82
2022/03/06 11:11:12;;;;;;;5.20;2.35;;;6.50;99.90;;;;;;5070464;28;20049;-82
2022/03/06 11:13:38;;;;;;;6.60;2.38;;;6.30;99.90;;;;;;5059784;28;20069;-82
2022/03/06 11:16:05;;;;;;;4.72;2.22;;;6.20;99.90;;;;;;5059449;28;20053;-82
2022/03/06 11:18:31;;;;;;;5.90;2.33;;;6.20;99.90;;;;;;5058343;28;20056;-82
2022/03/06 11:20:59;;;;;;;4.25;2.15;;;6.90;99.90;;;;;;5059018;28;20132;-82
2022/03/06 11:23:49;;;;;;;5.43;2.25;;;6.20;99.90;;;;;;5042734;28;20041;-82
2022/03/06 11:26:15;;;;;;;4.55;2.20;;;6.80;99.90;;;;;;4946130;28;20090;-82
2022/03/06 11:29:18;;;;;;;6.10;2.30;;;6.50;99.90;;;;;;4979743;28;20046;-82
2022/03/06 11:31:44;;;;;;;5.57;2.33;;;6.60;99.90;;;;;;4909509;29;20108;-82
2022/03/06 11:34:11;;;;;;;4.63;2.33;;;6.90;99.90;;;;;;4891518;29;20053;-82
2022/03/06 11:36:48;;;;;;;4.10;1.98;;;6.90;99.90;;;;;;4903225;29;20052;-83
2022/03/06 11:39:34;;;;;;;4.63;2.30;;;7.10;99.90;;;;;;4885678;29;20116;-82
2022/03/06 11:42:02;;;;;;;4.50;2.40;;;7.00;99.90;;;;;;4900704;29;20073;-83
2022/03/06 11:44:48;;;;;;;4.32;2.40;;;7.20;99.90;;;;;;4885126;29;20105;-83
2022/03/06 11:47:18;;;;;;;4.25;2.30;;;7.40;99.90;;;;;;4884609;29;20426;-83
2022/03/06 11:49:53;;;;;;;4.88;2.38;;;7.60;99.90;;;;;;4916768;23;20028;-83
2022/03/06 11:52:35;;;;;;;3.80;2.28;;;7.60;99.90;;;;;;5066768;28;20490;-82
2022/03/06 11:55:03;;;;;;;4.82;2.20;;;7.90;99.90;;;;;;5082706;28;20103;-82
2022/03/06 11:57:39;;;;;;;5.47;2.50;;;8.00;99.90;;;;;;5083057;28;20036;-82
2022/03/06 12:00:15;;;;;;;4.70;2.10;;;7.80;99.90;;;;;;5101077;28;20067;-82
2022/03/06 12:02:52;;;;;;;5.40;2.35;;;7.90;99.90;;;;;;5081640;28;20505;-83
2022/03/06 12:05:21;;;;;;;4.03;2.05;;;8.00;99.90;;;;;;5067363;28;20062;-82
2022/03/06 12:07:48;;;;;;;3.30;1.92;;;8.20;99.90;;;;;;5089383;28;20047;-82
2022/03/06 12:10:15;;;;;;;4.80;2.20;;;8.00;99.90;;;;;;5096713;28;20036;-82
2022/03/06 12:12:41;;;;;;;4.53;2.50;;;8.30;99.90;;;;;;5111356;28;20055;-82
2022/03/06 12:15:17;;;;;;;3.65;2.20;;;8.00;99.90;;;;;;5085579;28;20043;-82
2022/03/06 12:17:43;;;;;;;5.75;2.42;;;8.00;99.90;;;;;;5085516;28;20036;-82
2022/03/06 12:20:12;;;;;;;3.90;2.38;;;8.00;99.90;;;;;;5086329;28;20051;-82
2022/03/06 12:22:46;;;;;;;9.05;2.72;;;8.00;99.90;;;;;;5069738;28;20047;-82
2022/03/06 12:25:13;;;;;;;4.28;2.40;;;8.20;99.90;;;;;;5104158;28;20032;-82
2022/03/06 12:27:41;;;;;;;5.78;2.30;;;7.80;99.90;;;;;;5103807;28;20040;-82
2022/03/06 12:30:12;;;;;;;3.95;2.10;;;7.80;99.90;;;;;;5085160;28;20040;-82
2022/03/06 12:32:40;;;;;;;3.88;2.15;;;7.80;99.90;;;;;;5085824;28;20067;-82
2022/03/06 12:35:07;;;;;;;4.65;2.05;;;8.20;99.90;;;;;;5086605;28;20055;-83
2022/03/06 12:37:48;;;;;;;4.38;2.05;;;7.80;99.90;;;;;;5085012;28;20036;-82
2022/03/06 12:40:28;;;;;;;4.63;2.05;;;7.60;99.90;;;;;;5085940;28;20056;-82
2022/03/06 12:43:04;;;;;;;4.97;2.67;;;7.90;99.90;;;;;;5086122;28;20097;-82
2022/03/06 12:45:30;;;;;;;5.93;2.40;;;7.60;99.90;;;;;;5085790;28;20093;-82
2022/03/06 12:47:56;;;;;;;3.50;2.25;;;7.90;99.90;;;;;;5103191;28;20070;-82
2022/03/06 12:50:24;;;;;;;4.22;2.40;;;7.60;99.90;;;;;;5086096;28;20127;-82
2022/03/06 12:52:54;;;;;;;4.45;2.17;;;7.50;99.90;;;;;;5084538;28;20113;-82
2022/03/06 12:55:20;;;;;;;4.07;2.17;;;8.00;99.90;;;;;;5084629;28;20032;-82